sensor_id;sensor_type;location;lat;lon;timestamp;temperature;humidity
7014;DHT22;3547;50.774;12.918;2023-05-15T02:40:28;8.70;1.00
7014;DHT22;3547;50.774;12.918;2023-05-15T02:42:56;8.70;1.00
7014;DHT22;3547;50.774;12.918;2023-05-15T02:45:23;8.60;1.00
7014;DHT22;3547;50.774;12.918;2023-05-15T02:47:51;8.60;1.00
7014;DHT22;3547;50.774;12.918;2023-05-15T02:50:19;8.50;1.00
7014;DHT22;3547;50.774;12.918;2023-05-15T02:52:46;8.40;1.00
7014;DHT22;3547;50.774;12.918;2023-05-15T02:55:12;8.30;1.00
7014;DHT22;3547;50.774;12.918;2023-05-15T02:57:39;8.30;1.00
7014;DHT22;3547;50.774;12.918;2023-05-15T03:00:06;8.20;1.00
7014;DHT22;3547;50.774;12.918;2023-05-15T03:02:37;8.20;1.00
7014;DHT22;3547;50.774;12.918;2023-05-15T03:05:03;8.20;1.00
7014;DHT22;3547;50.774;12.918;2023-05-15T03:07:31;8.10;1.00
7014;DHT22;3547;50.774;12.918;2023-05-15T03:09:57;8.00;1.00
7014;DHT22;3547;50.774;12.918;2023-05-15T03:12:23;7.90;1.00
7014;DHT22;3547;50.774;12.918;2023-05-15T03:14:50;7.90;1.00
7014;DHT22;3547;50.774;12.918;2023-05-15T03:17:17;7.80;1.00
7014;DHT22;3547;50.774;12.918;2023-05-15T03:19:43;7.80;1.00
7014;DHT22;3547;50.774;12.918;2023-05-15T03:22:10;7.80;1.00
7014;DHT22;3547;50.774;12.918;2023-05-15T03:24:40;7.80;1.00
7014;DHT22;3547;50.774;12.918;2023-05-15T03:27:07;7.80;1.00
7014;DHT22;3547;50.774;12.918;2023-05-15T03:29:33;7.80;1.00
7014;DHT22;3547;50.774;12.918;2023-05-15T03:31:59;7.80;1.00
7014;DHT22;3547;50.774;12.918;2023-05-15T03:34:25;7.80;1.00
7014;DHT22;3547;50.774;12.918;2023-05-15T03:36:52;7.90;1.00
7014;DHT22;3547;50.774;12.918;2023-05-15T03:39:18;7.90;1.00
7014;DHT22;3547;50.774;12.918;2023-05-15T03:41:45;7.90;1.00
7014;DHT22;3547;50.774;12.918;2023-05-15T03:44:12;7.90;1.00
7014;DHT22;3547;50.774;12.918;2023-05-15T03:46:38;8.00;1.00
7014;DHT22;3547;50.774;12.918;2023-05-15T03:49:04;8.00;1.00
7014;DHT22;3547;50.774;12.918;2023-05-15T03:51:31;7.80;1.00
7014;DHT22;3547;50.774;12.918;2023-05-15T03:53:57;7.70;1.00
7014;DHT22;3547;50.774;12.918;2023-05-15T03:56:23;7.70;1.00
7014;DHT22;3547;50.774;12.918;2023-05-15T03:58:50;7.70;1.00
7014;DHT22;3547;50.774;12.918;2023-05-15T04:01:16;7.70;1.00
7014;DHT22;3547;50.774;12.918;2023-05-15T04:03:42;7.80;1.00
7014;DHT22;3547;50.774;12.918;2023-05-15T04:06:08;7.70;3.30
7014;DHT22;3547;50.774;12.918;2023-05-15T04:08:34;7.80;2.20
7014;DHT22;3547;50.774;12.918;2023-05-15T04:11:00;7.80;4.60
7014;DHT22;3547;50.774;12.918;2023-05-15T04:13:26;7.80;5.70
7014;DHT22;3547;50.774;12.918;2023-05-15T04:15:52;7.90;4.90
7014;DHT22;3547;50.774;12.918;2023-05-15T04:18:19;8.00;6.50
7014;DHT22;3547;50.774;12.918;2023-05-15T04:20:46;8.00;6.70
7014;DHT22;3547;50.774;12.918;2023-05-15T04:23:12;8.10;7.00
7014;DHT22;3547;50.774;12.918;2023-05-15T04:25:38;8.10;9.60
7014;DHT22;3547;50.774;12.918;2023-05-15T04:28:07;8.10;8.90
7014;DHT22;3547;50.774;12.918;2023-05-15T04:30:33;8.20;7.80
7014;DHT22;3547;50.774;12.918;2023-05-15T04:33:00;8.30;3.60
7014;DHT22;3547;50.774;12.918;2023-05-15T04:35:26;8.40;4.50
7014;DHT22;3547;50.774;12.918;2023-05-15T04:37:52;8.50;5.00
7014;DHT22;3547;50.774;12.918;2023-05-15T04:40:18;8.60;6.50
7014;DHT22;3547;50.774;12.918;2023-05-15T04:42:44;8.70;5.70
7014;DHT22;3547;50.774;12.918;2023-05-15T04:45:10;8.70;8.60
7014;DHT22;3547;50.774;12.918;2023-05-15T04:47:37;8.80;11.50
7014;DHT22;3547;50.774;12.918;2023-05-15T04:50:03;8.90;9.10
7014;DHT22;3547;50.774;12.918;2023-05-15T04:52:29;9.00;9.30
7014;DHT22;3547;50.774;12.918;2023-05-15T04:54:55;9.10;7.00
7014;DHT22;3547;50.774;12.918;2023-05-15T04:57:21;9.30;5.50
7014;DHT22;3547;50.774;12.918;2023-05-15T04:59:48;9.40;6.40
7014;DHT22;3547;50.774;12.918;2023-05-15T05:02:14;9.40;10.10
7014;DHT22;3547;50.774;12.918;2023-05-15T05:04:41;9.60;8.70
7014;DHT22;3547;50.774;12.918;2023-05-15T05:07:08;9.60;6.90
7014;DHT22;3547;50.774;12.918;2023-05-15T05:09:34;9.80;5.50
7014;DHT22;3547;50.774;12.918;2023-05-15T05:12:00;9.90;5.60
7014;DHT22;3547;50.774;12.918;2023-05-15T05:14:27;10.00;4.10
7014;DHT22;3547;50.774;12.918;2023-05-15T05:16:53;10.20;7.60
7014;DHT22;3547;50.774;12.918;2023-05-15T05:19:19;10.30;5.90
7014;DHT22;3547;50.774;12.918;2023-05-15T05:21:45;10.40;6.40
7014;DHT22;3547;50.774;12.918;2023-05-15T05:24:12;10.50;6.90
7014;DHT22;3547;50.774;12.918;2023-05-15T05:30:00;10.80;10.00
7014;DHT22;3547;50.774;12.918;2023-05-15T05:32:30;10.80;12.10
7014;DHT22;3547;50.774;12.918;2023-05-15T05:34:56;10.90;10.20
7014;DHT22;3547;50.774;12.918;2023-05-15T05:37:22;11.10;11.30
7014;DHT22;3547;50.774;12.918;2023-05-15T05:39:48;11.20;12.30
7014;DHT22;3547;50.774;12.918;2023-05-15T05:42:17;11.20;13.90
7014;DHT22;3547;50.774;12.918;2023-05-15T05:44:43;11.30;14.20
7014;DHT22;3547;50.774;12.918;2023-05-15T05:47:09;11.30;13.70
7014;DHT22;3547;50.774;12.918;2023-05-15T05:49:35;11.20;12.50
7014;DHT22;3547;50.774;12.918;2023-05-15T05:52:06;11.30;13.80
7014;DHT22;3547;50.774;12.918;2023-05-15T05:54:33;11.30;18.10
7014;DHT22;3547;50.774;12.918;2023-05-15T05:56:59;11.30;12.30
7014;DHT22;3547;50.774;12.918;2023-05-15T05:59:25;11.30;11.60
7014;DHT22;3547;50.774;12.918;2023-05-15T06:01:51;11.40;13.60
7014;DHT22;3547;50.774;12.918;2023-05-15T06:04:18;11.40;12.90
7014;DHT22;3547;50.774;12.918;2023-05-15T06:06:44;11.50;12.80
7014;DHT22;3547;50.774;12.918;2023-05-15T06:09:10;11.50;12.20
7014;DHT22;3547;50.774;12.918;2023-05-15T06:11:36;11.50;11.80
7014;DHT22;3547;50.774;12.918;2023-05-15T06:14:02;11.50;15.40
7014;DHT22;3547;50.774;12.918;2023-05-15T06:16:28;11.50;14.30
7014;DHT22;3547;50.774;12.918;2023-05-15T06:18:54;11.50;14.50
7014;DHT22;3547;50.774;12.918;2023-05-15T06:21:21;11.60;15.70
7014;DHT22;3547;50.774;12.918;2023-05-15T06:23:50;11.70;14.00
7014;DHT22;3547;50.774;12.918;2023-05-15T06:26:16;11.80;15.90
7014;DHT22;3547;50.774;12.918;2023-05-15T06:28:42;11.90;16.30
7014;DHT22;3547;50.774;12.918;2023-05-15T06:31:09;12.00;16.60
7014;DHT22;3547;50.774;12.918;2023-05-15T06:33:38;12.10;17.40
7014;DHT22;3547;50.774;12.918;2023-05-15T06:36:04;12.10;14.30
7014;DHT22;3547;50.774;12.918;2023-05-15T06:38:30;12.10;13.80
7014;DHT22;3547;50.774;12.918;2023-05-15T06:40:57;12.20;13.40
7014;DHT22;3547;50.774;12.918;2023-05-15T06:43:23;12.20;14.90
7014;DHT22;3547;50.774;12.918;2023-05-15T06:45:49;12.30;14.90
7014;DHT22;3547;50.774;12.918;2023-05-15T06:48:15;12.40;15.60
7014;DHT22;3547;50.774;12.918;2023-05-15T06:50:41;12.50;15.10
7014;DHT22;3547;50.774;12.918;2023-05-15T06:53:07;12.60;14.80
7014;DHT22;3547;50.774;12.918;2023-05-15T06:55:33;12.70;16.80
7014;DHT22;3547;50.774;12.918;2023-05-15T06:58:01;12.70;13.70
7014;DHT22;3547;50.774;12.918;2023-05-15T07:00:27;12.70;14.30
7014;DHT22;3547;50.774;12.918;2023-05-15T07:02:53;12.80;18.80
7014;DHT22;3547;50.774;12.918;2023-05-15T07:05:19;12.90;15.90
7014;DHT22;3547;50.774;12.918;2023-05-15T07:07:46;13.00;15.10
7014;DHT22;3547;50.774;12.918;2023-05-15T07:10:12;13.10;12.70
7014;DHT22;3547;50.774;12.918;2023-05-15T07:12:39;13.00;13.00
7014;DHT22;3547;50.774;12.918;2023-05-15T07:15:05;12.90;10.70
7014;DHT22;3547;50.774;12.918;2023-05-15T07:17:32;13.10;11.60
7014;DHT22;3547;50.774;12.918;2023-05-15T07:19:58;13.10;11.50
7014;DHT22;3547;50.774;12.918;2023-05-15T07:22:26;13.40;12.20
7014;DHT22;3547;50.774;12.918;2023-05-15T07:24:53;13.50;15.50
7014;DHT22;3547;50.774;12.918;2023-05-15T07:27:19;13.40;9.90
7014;DHT22;3547;50.774;12.918;2023-05-15T07:29:45;13.40;12.10
7014;DHT22;3547;50.774;12.918;2023-05-15T07:32:17;13.60;15.60
7014;DHT22;3547;50.774;12.918;2023-05-15T07:34:43;13.70;12.80
7014;DHT22;3547;50.774;12.918;2023-05-15T07:37:09;13.70;16.60
7014;DHT22;3547;50.774;12.918;2023-05-15T07:39:38;13.70;11.80
7014;DHT22;3547;50.774;12.918;2023-05-15T07:42:05;13.70;17.20
7014;DHT22;3547;50.774;12.918;2023-05-15T07:44:34;13.80;13.10
7014;DHT22;3547;50.774;12.918;2023-05-15T07:47:00;13.80;14.50
7014;DHT22;3547;50.774;12.918;2023-05-15T07:49:26;13.90;14.10
7014;DHT22;3547;50.774;12.918;2023-05-15T07:51:52;13.80;9.90
7014;DHT22;3547;50.774;12.918;2023-05-15T07:54:18;13.70;10.10
7014;DHT22;3547;50.774;12.918;2023-05-15T07:56:44;13.60;10.00
7014;DHT22;3547;50.774;12.918;2023-05-15T07:59:14;13.60;11.10
7014;DHT22;3547;50.774;12.918;2023-05-15T08:01:40;13.70;10.90
7014;DHT22;3547;50.774;12.918;2023-05-15T08:04:07;13.70;12.70
7014;DHT22;3547;50.774;12.918;2023-05-15T08:06:34;13.80;11.70
7014;DHT22;3547;50.774;12.918;2023-05-15T08:09:03;13.80;13.40
7014;DHT22;3547;50.774;12.918;2023-05-15T08:11:29;13.80;9.50
7014;DHT22;3547;50.774;12.918;2023-05-15T08:13:58;13.80;10.00
7014;DHT22;3547;50.774;12.918;2023-05-15T08:16:25;13.80;8.70
7014;DHT22;3547;50.774;12.918;2023-05-15T08:18:51;13.90;10.10
7014;DHT22;3547;50.774;12.918;2023-05-15T08:21:18;14.00;10.00
7014;DHT22;3547;50.774;12.918;2023-05-15T08:23:44;14.10;7.70
7014;DHT22;3547;50.774;12.918;2023-05-15T08:26:10;14.40;10.40
7014;DHT22;3547;50.774;12.918;2023-05-15T08:28:37;14.60;11.90
7014;DHT22;3547;50.774;12.918;2023-05-15T08:31:06;14.90;12.30
7014;DHT22;3547;50.774;12.918;2023-05-15T08:33:32;15.20;12.40
7014;DHT22;3547;50.774;12.918;2023-05-15T08:35:58;15.60;12.30
7014;DHT22;3547;50.774;12.918;2023-05-15T08:38:24;15.80;12.30
7014;DHT22;3547;50.774;12.918;2023-05-15T08:40:51;16.10;12.20
7014;DHT22;3547;50.774;12.918;2023-05-15T08:43:20;16.20;10.30
7014;DHT22;3547;50.774;12.918;2023-05-15T08:45:48;16.10;4.90
7014;DHT22;3547;50.774;12.918;2023-05-15T08:48:17;15.90;3.80
7014;DHT22;3547;50.774;12.918;2023-05-15T08:50:46;15.90;4.20
7014;DHT22;3547;50.774;12.918;2023-05-15T08:53:13;15.90;5.10
7014;DHT22;3547;50.774;12.918;2023-05-15T08:55:40;15.70;1.00
7014;DHT22;3547;50.774;12.918;2023-05-15T08:58:08;15.80;1.00
7014;DHT22;3547;50.774;12.918;2023-05-15T09:00:34;15.70;1.00
7014;DHT22;3547;50.774;12.918;2023-05-15T09:03:01;15.70;1.00
7014;DHT22;3547;50.774;12.918;2023-05-15T09:05:28;15.60;1.00
7014;DHT22;3547;50.774;12.918;2023-05-15T09:07:55;15.60;1.00
7014;DHT22;3547;50.774;12.918;2023-05-15T09:10:22;15.60;1.00
7014;DHT22;3547;50.774;12.918;2023-05-15T09:12:50;15.50;1.00
7014;DHT22;3547;50.774;12.918;2023-05-15T09:15:18;15.50;1.00
7014;DHT22;3547;50.774;12.918;2023-05-15T09:17:49;15.50;1.00
7014;DHT22;3547;50.774;12.918;2023-05-15T09:22:52;15.70;1.00
7014;DHT22;3547;50.774;12.918;2023-05-15T09:25:37;15.70;1.00
7014;DHT22;3547;50.774;12.918;2023-05-15T09:28:06;15.80;1.00
7014;DHT22;3547;50.774;12.918;2023-05-15T09:30:32;16.00;1.00
7014;DHT22;3547;50.774;12.918;2023-05-15T09:33:00;16.00;1.00
7014;DHT22;3547;50.774;12.918;2023-05-15T09:35:34;16.30;1.00
7014;DHT22;3547;50.774;12.918;2023-05-15T09:38:01;16.30;1.00
7014;DHT22;3547;50.774;12.918;2023-05-15T09:40:29;16.50;1.00
7014;DHT22;3547;50.774;12.918;2023-05-15T09:42:56;16.30;1.00
7014;DHT22;3547;50.774;12.918;2023-05-15T09:45:23;16.20;1.00
7014;DHT22;3547;50.774;12.918;2023-05-15T09:47:55;16.20;1.00
7014;DHT22;3547;50.774;12.918;2023-05-15T09:50:24;16.40;1.00
7014;DHT22;3547;50.774;12.918;2023-05-15T09:52:50;16.40;1.00
7014;DHT22;3547;50.774;12.918;2023-05-15T09:55:18;16.20;1.00
7014;DHT22;3547;50.774;12.918;2023-05-15T10:00:32;16.00;1.00
7014;DHT22;3547;50.774;12.918;2023-05-15T10:03:04;16.00;1.00
7014;DHT22;3547;50.774;12.918;2023-05-15T10:05:31;16.00;1.00
7014;DHT22;3547;50.774;12.918;2023-05-15T10:07:58;15.80;1.00
7014;DHT22;3547;50.774;12.918;2023-05-15T10:10:26;15.80;1.00
7014;DHT22;3547;50.774;12.918;2023-05-15T10:12:53;15.70;1.00
7014;DHT22;3547;50.774;12.918;2023-05-15T10:15:21;15.70;1.00
7014;DHT22;3547;50.774;12.918;2023-05-15T10:17:48;15.70;1.00
7014;DHT22;3547;50.774;12.918;2023-05-15T10:20:16;15.80;1.00
7014;DHT22;3547;50.774;12.918;2023-05-15T10:22:46;15.90;1.00
7014;DHT22;3547;50.774;12.918;2023-05-15T10:27:49;15.90;1.00
7014;DHT22;3547;50.774;12.918;2023-05-15T10:30:16;16.00;1.00
7014;DHT22;3547;50.774;12.918;2023-05-15T10:32:43;16.10;1.00
7014;DHT22;3547;50.774;12.918;2023-05-15T10:35:10;16.20;1.00
7014;DHT22;3547;50.774;12.918;2023-05-15T10:37:40;16.40;1.00
7014;DHT22;3547;50.774;12.918;2023-05-15T10:40:08;16.30;1.00
7014;DHT22;3547;50.774;12.918;2023-05-15T10:42:37;16.20;1.00
7014;DHT22;3547;50.774;12.918;2023-05-15T10:45:06;16.40;1.00
7014;DHT22;3547;50.774;12.918;2023-05-15T10:47:34;16.40;1.00
7014;DHT22;3547;50.774;12.918;2023-05-15T10:50:01;16.60;1.00
7014;DHT22;3547;50.774;12.918;2023-05-15T10:52:31;16.80;1.00
7014;DHT22;3547;50.774;12.918;2023-05-15T10:54:57;17.00;1.00
7014;DHT22;3547;50.774;12.918;2023-05-15T10:57:23;17.20;1.00
7014;DHT22;3547;50.774;12.918;2023-05-15T10:59:50;17.20;1.00
7014;DHT22;3547;50.774;12.918;2023-05-15T11:02:25;17.30;1.00
7014;DHT22;3547;50.774;12.918;2023-05-15T11:05:01;17.80;1.00
7014;DHT22;3547;50.774;12.918;2023-05-15T11:07:28;18.50;1.00
7014;DHT22;3547;50.774;12.918;2023-05-15T11:09:55;18.60;1.00
7014;DHT22;3547;50.774;12.918;2023-05-15T11:12:22;18.50;1.00
7014;DHT22;3547;50.774;12.918;2023-05-15T11:17:25;19.40;1.00
7014;DHT22;3547;50.774;12.918;2023-05-15T11:27:21;20.10;1.00
7014;DHT22;3547;50.774;12.918;2023-05-15T11:32:44;19.20;1.00
7014;DHT22;3547;50.774;12.918;2023-05-15T11:35:27;19.10;1.00
7014;DHT22;3547;50.774;12.918;2023-05-15T11:38:00;19.10;1.00
7014;DHT22;3547;50.774;12.918;2023-05-15T11:40:31;19.20;1.00
7014;DHT22;3547;50.774;12.918;2023-05-15T11:43:05;19.40;1.00
7014;DHT22;3547;50.774;12.918;2023-05-15T11:45:34;19.00;1.00
7014;DHT22;3547;50.774;12.918;2023-05-15T11:48:03;18.80;1.00
7014;DHT22;3547;50.774;12.918;2023-05-15T11:50:30;18.60;1.00
7014;DHT22;3547;50.774;12.918;2023-05-15T11:53:04;18.50;1.00
7014;DHT22;3547;50.774;12.918;2023-05-15T11:55:31;18.00;1.00
7014;DHT22;3547;50.774;12.918;2023-05-15T11:57:58;17.90;1.00
7014;DHT22;3547;50.774;12.918;2023-05-15T12:00:25;17.90;1.00
7014;DHT22;3547;50.774;12.918;2023-05-15T12:02:51;17.60;1.00
7014;DHT22;3547;50.774;12.918;2023-05-15T12:05:17;17.70;1.00
7014;DHT22;3547;50.774;12.918;2023-05-15T12:07:44;17.80;1.00
7014;DHT22;3547;50.774;12.918;2023-05-15T12:10:11;17.90;1.00
7014;DHT22;3547;50.774;12.918;2023-05-15T12:12:39;18.00;1.00
7014;DHT22;3547;50.774;12.918;2023-05-15T12:15:10;18.20;1.00
7014;DHT22;3547;50.774;12.918;2023-05-15T12:17:38;18.20;1.00
7014;DHT22;3547;50.774;12.918;2023-05-15T12:20:06;18.20;1.00
7014;DHT22;3547;50.774;12.918;2023-05-15T12:22:40;17.90;1.00
7014;DHT22;3547;50.774;12.918;2023-05-15T12:25:11;17.80;1.00
7014;DHT22;3547;50.774;12.918;2023-05-15T12:27:38;17.60;1.00
7014;DHT22;3547;50.774;12.918;2023-05-15T12:30:06;17.70;1.00
7014;DHT22;3547;50.774;12.918;2023-05-15T12:32:34;17.80;1.00
7014;DHT22;3547;50.774;12.918;2023-05-15T12:35:01;18.20;1.00
7014;DHT22;3547;50.774;12.918;2023-05-15T12:37:31;18.20;1.00
7014;DHT22;3547;50.774;12.918;2023-05-15T12:40:04;18.50;1.00
7014;DHT22;3547;50.774;12.918;2023-05-15T12:45:14;18.30;1.00
7014;DHT22;3547;50.774;12.918;2023-05-15T12:47:46;18.30;1.00
7014;DHT22;3547;50.774;12.918;2023-05-15T12:50:17;18.00;1.00
7014;DHT22;3547;50.774;12.918;2023-05-15T12:52:54;17.70;1.00
7014;DHT22;3547;50.774;12.918;2023-05-15T12:55:42;18.00;1.00
7014;DHT22;3547;50.774;12.918;2023-05-15T12:58:19;18.60;1.00
7014;DHT22;3547;50.774;12.918;2023-05-15T13:04:08;18.60;1.00
7014;DHT22;3547;50.774;12.918;2023-05-15T13:10:06;18.80;1.00
7014;DHT22;3547;50.774;12.918;2023-05-15T13:12:43;18.40;1.00
7014;DHT22;3547;50.774;12.918;2023-05-15T13:15:32;18.50;1.00
7014;DHT22;3547;50.774;12.918;2023-05-15T13:18:12;18.60;1.00
7014;DHT22;3547;50.774;12.918;2023-05-15T13:20:41;18.70;1.00
7014;DHT22;3547;50.774;12.918;2023-05-15T13:23:11;18.80;1.00
7014;DHT22;3547;50.774;12.918;2023-05-15T13:25:38;18.90;1.00
7014;DHT22;3547;50.774;12.918;2023-05-15T13:28:06;19.00;1.00
7014;DHT22;3547;50.774;12.918;2023-05-15T13:30:34;19.80;1.00
7014;DHT22;3547;50.774;12.918;2023-05-15T13:33:04;20.30;1.00
7014;DHT22;3547;50.774;12.918;2023-05-15T13:40:50;19.80;1.00
7014;DHT22;3547;50.774;12.918;2023-05-15T13:43:23;20.90;1.00
7014;DHT22;3547;50.774;12.918;2023-05-15T13:45:50;21.70;1.00
7014;DHT22;3547;50.774;12.918;2023-05-15T13:48:16;22.10;1.00
7014;DHT22;3547;50.774;12.918;2023-05-15T13:50:42;22.40;1.00
7014;DHT22;3547;50.774;12.918;2023-05-15T13:53:10;22.50;1.00
7014;DHT22;3547;50.774;12.918;2023-05-15T13:55:45;22.00;1.00
7014;DHT22;3547;50.774;12.918;2023-05-15T13:58:12;21.90;1.00
7014;DHT22;3547;50.774;12.918;2023-05-15T14:00:38;21.00;1.00
7014;DHT22;3547;50.774;12.918;2023-05-15T14:03:05;20.20;1.00
7014;DHT22;3547;50.774;12.918;2023-05-15T14:05:31;20.00;1.00
7014;DHT22;3547;50.774;12.918;2023-05-15T14:07:58;19.20;1.00
7014;DHT22;3547;50.774;12.918;2023-05-15T14:31:45;18.90;1.00
7014;DHT22;3547;50.774;12.918;2023-05-15T14:36:48;18.80;1.00
7014;DHT22;3547;50.774;12.918;2023-05-15T14:39:15;19.20;1.00
7014;DHT22;3547;50.774;12.918;2023-05-15T14:41:44;19.40;1.00
7014;DHT22;3547;50.774;12.918;2023-05-15T14:47:08;20.50;1.00
7014;DHT22;3547;50.774;12.918;2023-05-15T14:55:07;21.20;1.00
7014;DHT22;3547;50.774;12.918;2023-05-15T14:57:39;22.10;1.00
7014;DHT22;3547;50.774;12.918;2023-05-15T15:00:06;23.20;1.00
7014;DHT22;3547;50.774;12.918;2023-05-15T15:02:36;23.90;1.00
7014;DHT22;3547;50.774;12.918;2023-05-15T15:05:17;23.80;1.00
7014;DHT22;3547;50.774;12.918;2023-05-15T15:11:06;23.40;1.00
7014;DHT22;3547;50.774;12.918;2023-05-15T15:13:32;24.30;1.00
7014;DHT22;3547;50.774;12.918;2023-05-15T15:15:59;24.90;1.00
7014;DHT22;3547;50.774;12.918;2023-05-15T15:18:34;25.20;1.00
7014;DHT22;3547;50.774;12.918;2023-05-15T15:21:02;24.40;1.00
7014;DHT22;3547;50.774;12.918;2023-05-15T15:23:30;25.10;1.00
7014;DHT22;3547;50.774;12.918;2023-05-15T15:26:03;25.40;1.00
7014;DHT22;3547;50.774;12.918;2023-05-15T15:28:35;24.40;1.00
7014;DHT22;3547;50.774;12.918;2023-05-15T15:31:05;24.10;1.00
7014;DHT22;3547;50.774;12.918;2023-05-15T15:33:35;22.80;1.00
7014;DHT22;3547;50.774;12.918;2023-05-15T15:36:02;21.40;1.00
7014;DHT22;3547;50.774;12.918;2023-05-15T15:38:28;20.30;1.00
7014;DHT22;3547;50.774;12.918;2023-05-15T15:40:54;20.10;1.00
7014;DHT22;3547;50.774;12.918;2023-05-15T15:43:20;19.90;1.00
7014;DHT22;3547;50.774;12.918;2023-05-15T15:45:46;19.30;1.00
7014;DHT22;3547;50.774;12.918;2023-05-15T15:48:14;19.40;1.00
7014;DHT22;3547;50.774;12.918;2023-05-15T15:50:41;18.90;1.00
7014;DHT22;3547;50.774;12.918;2023-05-15T15:53:08;18.90;1.00
7014;DHT22;3547;50.774;12.918;2023-05-15T15:55:34;18.80;1.00
7014;DHT22;3547;50.774;12.918;2023-05-15T15:58:00;19.00;1.00
7014;DHT22;3547;50.774;12.918;2023-05-15T16:00:26;19.20;1.00
7014;DHT22;3547;50.774;12.918;2023-05-15T16:02:53;19.10;1.00
7014;DHT22;3547;50.774;12.918;2023-05-15T16:05:22;19.30;1.00
7014;DHT22;3547;50.774;12.918;2023-05-15T16:10:44;19.30;1.00
7014;DHT22;3547;50.774;12.918;2023-05-15T16:13:11;19.50;1.00
7014;DHT22;3547;50.774;12.918;2023-05-15T16:15:37;19.40;1.00
7014;DHT22;3547;50.774;12.918;2023-05-15T16:18:03;19.40;1.00
7014;DHT22;3547;50.774;12.918;2023-05-15T16:20:29;19.50;1.00
7014;DHT22;3547;50.774;12.918;2023-05-15T16:22:56;19.50;1.00
7014;DHT22;3547;50.774;12.918;2023-05-15T16:25:22;19.40;1.00
7014;DHT22;3547;50.774;12.918;2023-05-15T16:27:48;19.70;1.00
7014;DHT22;3547;50.774;12.918;2023-05-15T16:30:14;19.40;1.00
7014;DHT22;3547;50.774;12.918;2023-05-15T16:32:40;19.80;1.00
7014;DHT22;3547;50.774;12.918;2023-05-15T16:35:07;20.80;1.00
7014;DHT22;3547;50.774;12.918;2023-05-15T16:37:33;20.60;1.00
7014;DHT22;3547;50.774;12.918;2023-05-15T16:40:00;20.50;1.00
7014;DHT22;3547;50.774;12.918;2023-05-15T16:42:26;20.40;1.00
7014;DHT22;3547;50.774;12.918;2023-05-15T16:44:52;20.20;1.00
7014;DHT22;3547;50.774;12.918;2023-05-15T16:47:18;20.10;1.00
7014;DHT22;3547;50.774;12.918;2023-05-15T16:49:44;20.10;1.00
7014;DHT22;3547;50.774;12.918;2023-05-15T16:52:10;19.70;1.00
7014;DHT22;3547;50.774;12.918;2023-05-15T16:54:37;19.30;1.00
7014;DHT22;3547;50.774;12.918;2023-05-15T16:57:06;19.10;1.00
7014;DHT22;3547;50.774;12.918;2023-05-15T16:59:32;18.90;1.00
7014;DHT22;3547;50.774;12.918;2023-05-15T17:01:58;18.70;1.00
7014;DHT22;3547;50.774;12.918;2023-05-15T17:04:24;18.40;1.00
7014;DHT22;3547;50.774;12.918;2023-05-15T17:06:53;18.40;1.00
7014;DHT22;3547;50.774;12.918;2023-05-15T17:09:20;18.40;1.00
7014;DHT22;3547;50.774;12.918;2023-05-15T17:11:47;18.60;1.00
7014;DHT22;3547;50.774;12.918;2023-05-15T17:14:13;18.60;1.00
7014;DHT22;3547;50.774;12.918;2023-05-15T17:16:39;18.80;1.00
7014;DHT22;3547;50.774;12.918;2023-05-15T17:19:06;19.50;1.00
7014;DHT22;3547;50.774;12.918;2023-05-15T17:21:32;19.70;1.00
7014;DHT22;3547;50.774;12.918;2023-05-15T17:23:59;20.40;1.00
7014;DHT22;3547;50.774;12.918;2023-05-15T17:26:26;21.80;1.00
7014;DHT22;3547;50.774;12.918;2023-05-15T17:28:52;22.30;1.00
7014;DHT22;3547;50.774;12.918;2023-05-15T17:31:18;23.20;1.00
7014;DHT22;3547;50.774;12.918;2023-05-15T17:33:46;21.90;1.00
7014;DHT22;3547;50.774;12.918;2023-05-15T17:36:13;20.80;1.00
7014;DHT22;3547;50.774;12.918;2023-05-15T17:38:39;20.10;1.00
7014;DHT22;3547;50.774;12.918;2023-05-15T17:41:06;19.30;1.00
7014;DHT22;3547;50.774;12.918;2023-05-15T17:43:32;18.80;1.00
7014;DHT22;3547;50.774;12.918;2023-05-15T17:45:58;18.50;1.00
7014;DHT22;3547;50.774;12.918;2023-05-15T17:48:25;18.20;1.00
7014;DHT22;3547;50.774;12.918;2023-05-15T17:50:52;18.00;1.00
7014;DHT22;3547;50.774;12.918;2023-05-15T17:53:18;17.70;1.00
7014;DHT22;3547;50.774;12.918;2023-05-15T17:55:44;17.50;1.00
7014;DHT22;3547;50.774;12.918;2023-05-15T17:58:10;17.40;1.00
7014;DHT22;3547;50.774;12.918;2023-05-15T18:00:36;17.20;1.00
7014;DHT22;3547;50.774;12.918;2023-05-15T18:03:02;17.00;1.00
7014;DHT22;3547;50.774;12.918;2023-05-15T18:05:29;16.70;1.00
7014;DHT22;3547;50.774;12.918;2023-05-15T18:07:55;16.50;1.00
7014;DHT22;3547;50.774;12.918;2023-05-15T18:10:23;16.50;1.00
7014;DHT22;3547;50.774;12.918;2023-05-15T18:12:53;16.30;1.00
7014;DHT22;3547;50.774;12.918;2023-05-15T18:15:20;16.20;1.00
7014;DHT22;3547;50.774;12.918;2023-05-15T18:17:46;16.10;1.00
7014;DHT22;3547;50.774;12.918;2023-05-15T18:20:12;16.00;1.00
7014;DHT22;3547;50.774;12.918;2023-05-15T18:22:38;15.80;1.00
7014;DHT22;3547;50.774;12.918;2023-05-15T18:25:06;15.60;1.00
7014;DHT22;3547;50.774;12.918;2023-05-15T18:27:32;15.70;1.00
7014;DHT22;3547;50.774;12.918;2023-05-15T18:29:58;15.70;1.00
7014;DHT22;3547;50.774;12.918;2023-05-15T18:32:24;15.70;1.00
7014;DHT22;3547;50.774;12.918;2023-05-15T18:34:50;15.60;1.00
7014;DHT22;3547;50.774;12.918;2023-05-15T18:37:16;15.40;1.00
7014;DHT22;3547;50.774;12.918;2023-05-15T18:39:42;15.30;1.00
7014;DHT22;3547;50.774;12.918;2023-05-15T18:42:09;15.20;1.00
7014;DHT22;3547;50.774;12.918;2023-05-15T18:44:35;15.00;1.00
7014;DHT22;3547;50.774;12.918;2023-05-15T18:47:01;14.90;1.00
7014;DHT22;3547;50.774;12.918;2023-05-15T18:49:28;14.80;1.00
7014;DHT22;3547;50.774;12.918;2023-05-15T18:51:54;14.70;1.00
7014;DHT22;3547;50.774;12.918;2023-05-15T18:54:20;14.70;1.00
7014;DHT22;3547;50.774;12.918;2023-05-15T18:56:46;14.70;1.00
7014;DHT22;3547;50.774;12.918;2023-05-15T18:59:13;14.50;1.00
7014;DHT22;3547;50.774;12.918;2023-05-15T19:01:39;14.40;1.00
7014;DHT22;3547;50.774;12.918;2023-05-15T19:04:05;14.40;1.00
7014;DHT22;3547;50.774;12.918;2023-05-15T19:06:31;14.40;1.00
7014;DHT22;3547;50.774;12.918;2023-05-15T19:08:57;14.40;1.00
7014;DHT22;3547;50.774;12.918;2023-05-15T19:11:24;14.40;1.00
7014;DHT22;3547;50.774;12.918;2023-05-15T19:13:51;14.30;1.00
7014;DHT22;3547;50.774;12.918;2023-05-15T19:16:17;14.20;1.00
7014;DHT22;3547;50.774;12.918;2023-05-15T19:18:43;14.10;1.00
7014;DHT22;3547;50.774;12.918;2023-05-15T19:21:09;14.00;1.00
7014;DHT22;3547;50.774;12.918;2023-05-15T19:23:36;13.90;1.00
7014;DHT22;3547;50.774;12.918;2023-05-15T19:26:02;13.90;1.00
7014;DHT22;3547;50.774;12.918;2023-05-15T19:28:28;13.80;1.00
7014;DHT22;3547;50.774;12.918;2023-05-15T19:30:54;13.70;1.00
7014;DHT22;3547;50.774;12.918;2023-05-15T19:33:20;13.60;1.00
7014;DHT22;3547;50.774;12.918;2023-05-15T19:35:46;13.50;1.00
7014;DHT22;3547;50.774;12.918;2023-05-15T19:38:13;13.40;1.00
7014;DHT22;3547;50.774;12.918;2023-05-15T19:40:42;13.30;1.00
7014;DHT22;3547;50.774;12.918;2023-05-15T19:43:08;13.30;1.00
7014;DHT22;3547;50.774;12.918;2023-05-15T19:45:41;13.40;1.00
7014;DHT22;3547;50.774;12.918;2023-05-15T19:48:08;13.20;1.00
7014;DHT22;3547;50.774;12.918;2023-05-15T19:50:37;13.20;1.00
7014;DHT22;3547;50.774;12.918;2023-05-15T19:53:04;13.10;1.00
7014;DHT22;3547;50.774;12.918;2023-05-15T19:55:30;13.00;1.00
7014;DHT22;3547;50.774;12.918;2023-05-15T19:57:57;13.00;1.00
7014;DHT22;3547;50.774;12.918;2023-05-15T20:00:23;12.80;1.00